Tredyffrin, Pennsylvania
Current Conditions -  °F | °C
As of 5:15 PM on Monday 26 Jan 2015 (Local Time) from KLOM Reporting Station
Overcast Overcast  
Wind Chill: 17°   Ceiling: 600
Heat Index: 27°   Visibility: 4mi
Dew Point: 21°   Wind: 9mph
Humidity: 80%   Direction: 40°NE
Pressure: 29.77"   Gusts: NA
Location:  40.0321°N, 75.449°W
Report Text: KLOM 262215Z AUTO 04008KT 4SM BKN006 BKN011 OVC018 M03/M06 A2977 RMK AO1
Loading
Personal Weather Stations






























Interactive Weather Map New forecast layout! Learn more

10-Day Weather Forecast

Advertisements
Track Severe Weather on mobile